sensor_id;sensor_type;location;lat;lon;timestamp;temperature;humidity
31387;DHT22;18017;50.124;8.688;2022-12-07T00:02:04;4.70;99.90
31387;DHT22;18017;50.124;8.688;2022-12-07T00:04:30;4.70;99.90
31387;DHT22;18017;50.124;8.688;2022-12-07T00:06:55;4.70;99.90
31387;DHT22;18017;50.124;8.688;2022-12-07T00:09:21;4.80;99.90
31387;DHT22;18017;50.124;8.688;2022-12-07T00:11:49;4.80;99.90
31387;DHT22;18017;50.124;8.688;2022-12-07T00:14:16;4.70;99.90
31387;DHT22;18017;50.124;8.688;2022-12-07T00:16:43;4.80;99.90
31387;DHT22;18017;50.124;8.688;2022-12-07T00:19:10;4.80;99.90
31387;DHT22;18017;50.124;8.688;2022-12-07T00:21:36;4.80;99.90
31387;DHT22;18017;50.124;8.688;2022-12-07T00:24:03;4.80;99.90
31387;DHT22;18017;50.124;8.688;2022-12-07T00:26:32;4.80;99.90
31387;DHT22;18017;50.124;8.688;2022-12-07T00:29:00;4.80;99.90
31387;DHT22;18017;50.124;8.688;2022-12-07T00:31:29;4.80;99.90
31387;DHT22;18017;50.124;8.688;2022-12-07T00:33:56;4.80;99.90
31387;DHT22;18017;50.124;8.688;2022-12-07T00:36:23;4.80;99.90
31387;DHT22;18017;50.124;8.688;2022-12-07T00:38:49;4.80;99.90
31387;DHT22;18017;50.124;8.688;2022-12-07T00:41:17;4.70;99.90
31387;DHT22;18017;50.124;8.688;2022-12-07T00:43:44;4.70;99.90
31387;DHT22;18017;50.124;8.688;2022-12-07T00:46:10;4.70;99.90
31387;DHT22;18017;50.124;8.688;2022-12-07T00:48:36;4.70;99.90
31387;DHT22;18017;50.124;8.688;2022-12-07T00:51:03;4.70;99.90
31387;DHT22;18017;50.124;8.688;2022-12-07T00:53:29;4.70;99.90
31387;DHT22;18017;50.124;8.688;2022-12-07T00:55:55;4.70;99.90
31387;DHT22;18017;50.124;8.688;2022-12-07T00:58:23;4.70;99.90
31387;DHT22;18017;50.124;8.688;2022-12-07T01:00:49;4.70;99.90
31387;DHT22;18017;50.124;8.688;2022-12-07T01:03:16;4.70;99.90
31387;DHT22;18017;50.124;8.688;2022-12-07T01:05:52;4.70;99.90
31387;DHT22;18017;50.124;8.688;2022-12-07T01:08:19;4.70;99.90
31387;DHT22;18017;50.124;8.688;2022-12-07T01:10:45;4.70;99.90
31387;DHT22;18017;50.124;8.688;2022-12-07T01:13:11;4.60;99.90
31387;DHT22;18017;50.124;8.688;2022-12-07T01:15:41;4.60;99.90
31387;DHT22;18017;50.124;8.688;2022-12-07T01:18:07;4.60;99.90
31387;DHT22;18017;50.124;8.688;2022-12-07T01:20:33;4.50;99.90
31387;DHT22;18017;50.124;8.688;2022-12-07T01:22:59;4.60;99.90
31387;DHT22;18017;50.124;8.688;2022-12-07T01:25:24;4.50;99.90
31387;DHT22;18017;50.124;8.688;2022-12-07T01:27:50;4.50;99.90
31387;DHT22;18017;50.124;8.688;2022-12-07T01:30:16;4.50;99.90
31387;DHT22;18017;50.124;8.688;2022-12-07T01:32:41;4.50;99.90
31387;DHT22;18017;50.124;8.688;2022-12-07T01:35:07;4.40;99.90
31387;DHT22;18017;50.124;8.688;2022-12-07T01:37:37;4.40;99.90
31387;DHT22;18017;50.124;8.688;2022-12-07T01:40:04;4.40;99.90
31387;DHT22;18017;50.124;8.688;2022-12-07T01:42:30;4.40;99.90
31387;DHT22;18017;50.124;8.688;2022-12-07T01:47:51;4.50;99.90
31387;DHT22;18017;50.124;8.688;2022-12-07T01:50:17;4.50;99.90
31387;DHT22;18017;50.124;8.688;2022-12-07T01:52:45;4.50;99.90
31387;DHT22;18017;50.124;8.688;2022-12-07T01:55:14;4.50;99.90
31387;DHT22;18017;50.124;8.688;2022-12-07T01:57:43;4.50;99.90
31387;DHT22;18017;50.124;8.688;2022-12-07T02:00:11;4.60;99.90
31387;DHT22;18017;50.124;8.688;2022-12-07T02:02:57;4.50;99.90
31387;DHT22;18017;50.124;8.688;2022-12-07T02:05:25;4.50;99.90
31387;DHT22;18017;50.124;8.688;2022-12-07T02:07:54;4.60;99.90
31387;DHT22;18017;50.124;8.688;2022-12-07T02:10:28;4.60;99.90
31387;DHT22;18017;50.124;8.688;2022-12-07T02:16:00;4.50;99.90
31387;DHT22;18017;50.124;8.688;2022-12-07T02:18:33;4.50;99.90
31387;DHT22;18017;50.124;8.688;2022-12-07T02:24:13;4.30;99.90
31387;DHT22;18017;50.124;8.688;2022-12-07T02:32:55;4.20;99.90
31387;DHT22;18017;50.124;8.688;2022-12-07T02:35:30;4.20;99.90
31387;DHT22;18017;50.124;8.688;2022-12-07T02:40:55;4.20;99.90
31387;DHT22;18017;50.124;8.688;2022-12-07T02:43:33;4.10;99.90
31387;DHT22;18017;50.124;8.688;2022-12-07T02:46:08;4.10;99.90
31387;DHT22;18017;50.124;8.688;2022-12-07T02:48:36;4.20;99.90
31387;DHT22;18017;50.124;8.688;2022-12-07T02:51:02;4.30;99.90
31387;DHT22;18017;50.124;8.688;2022-12-07T02:53:36;4.30;99.90
31387;DHT22;18017;50.124;8.688;2022-12-07T02:59:02;4.30;99.90
31387;DHT22;18017;50.124;8.688;2022-12-07T03:01:47;4.40;99.90
31387;DHT22;18017;50.124;8.688;2022-12-07T03:04:52;4.40;99.90
31387;DHT22;18017;50.124;8.688;2022-12-07T03:07:49;4.50;99.90
31387;DHT22;18017;50.124;8.688;2022-12-07T03:12:51;4.40;99.90
31387;DHT22;18017;50.124;8.688;2022-12-07T03:15:35;4.40;99.90
31387;DHT22;18017;50.124;8.688;2022-12-07T03:18:05;4.40;99.90
31387;DHT22;18017;50.124;8.688;2022-12-07T03:20:34;4.50;99.90
31387;DHT22;18017;50.124;8.688;2022-12-07T03:23:01;4.50;99.90
31387;DHT22;18017;50.124;8.688;2022-12-07T03:25:29;4.40;99.90
31387;DHT22;18017;50.124;8.688;2022-12-07T03:28:01;4.40;99.90
31387;DHT22;18017;50.124;8.688;2022-12-07T03:30:33;4.40;99.90
31387;DHT22;18017;50.124;8.688;2022-12-07T03:33:07;4.40;99.90
31387;DHT22;18017;50.124;8.688;2022-12-07T03:35:43;4.40;99.90
31387;DHT22;18017;50.124;8.688;2022-12-07T03:38:18;4.40;99.90
31387;DHT22;18017;50.124;8.688;2022-12-07T03:40:54;4.40;99.90
31387;DHT22;18017;50.124;8.688;2022-12-07T03:43:22;4.30;99.90
31387;DHT22;18017;50.124;8.688;2022-12-07T03:48:52;4.30;99.90
31387;DHT22;18017;50.124;8.688;2022-12-07T03:51:33;4.30;99.90
31387;DHT22;18017;50.124;8.688;2022-12-07T03:54:17;4.40;99.90
31387;DHT22;18017;50.124;8.688;2022-12-07T03:56:45;4.40;99.90
31387;DHT22;18017;50.124;8.688;2022-12-07T03:59:13;4.50;99.90
31387;DHT22;18017;50.124;8.688;2022-12-07T04:01:42;4.40;99.90
31387;DHT22;18017;50.124;8.688;2022-12-07T04:04:08;4.40;99.90
31387;DHT22;18017;50.124;8.688;2022-12-07T04:06:33;4.40;99.90
31387;DHT22;18017;50.124;8.688;2022-12-07T04:08:59;4.40;99.90
31387;DHT22;18017;50.124;8.688;2022-12-07T04:11:24;4.40;99.90
31387;DHT22;18017;50.124;8.688;2022-12-07T04:13:50;4.30;99.90
31387;DHT22;18017;50.124;8.688;2022-12-07T04:16:34;4.30;99.90
31387;DHT22;18017;50.124;8.688;2022-12-07T04:18:59;4.30;99.90
31387;DHT22;18017;50.124;8.688;2022-12-07T04:21:25;4.40;99.90
31387;DHT22;18017;50.124;8.688;2022-12-07T04:23:50;4.40;99.90
31387;DHT22;18017;50.124;8.688;2022-12-07T04:26:16;4.50;99.90
31387;DHT22;18017;50.124;8.688;2022-12-07T04:28:41;4.50;99.90
31387;DHT22;18017;50.124;8.688;2022-12-07T04:31:07;4.50;99.90
31387;DHT22;18017;50.124;8.688;2022-12-07T04:33:32;4.50;99.90
31387;DHT22;18017;50.124;8.688;2022-12-07T04:35:58;4.50;99.90
31387;DHT22;18017;50.124;8.688;2022-12-07T04:38:24;4.50;99.90
31387;DHT22;18017;50.124;8.688;2022-12-07T04:40:49;4.50;99.90
31387;DHT22;18017;50.124;8.688;2022-12-07T04:43:15;4.60;99.90
31387;DHT22;18017;50.124;8.688;2022-12-07T04:45:46;4.50;99.90
31387;DHT22;18017;50.124;8.688;2022-12-07T04:48:11;4.50;99.90
31387;DHT22;18017;50.124;8.688;2022-12-07T04:50:37;4.50;99.90
31387;DHT22;18017;50.124;8.688;2022-12-07T04:53:03;4.50;99.90
31387;DHT22;18017;50.124;8.688;2022-12-07T04:55:29;4.60;99.90
31387;DHT22;18017;50.124;8.688;2022-12-07T04:57:54;4.60;99.90
31387;DHT22;18017;50.124;8.688;2022-12-07T05:00:20;4.50;99.90
31387;DHT22;18017;50.124;8.688;2022-12-07T05:02:45;4.60;99.90
31387;DHT22;18017;50.124;8.688;2022-12-07T05:05:11;4.50;99.90
31387;DHT22;18017;50.124;8.688;2022-12-07T05:07:36;4.50;99.90
31387;DHT22;18017;50.124;8.688;2022-12-07T05:10:02;4.50;99.90
31387;DHT22;18017;50.124;8.688;2022-12-07T05:12:28;4.40;99.90
31387;DHT22;18017;50.124;8.688;2022-12-07T05:14:53;4.40;99.90
31387;DHT22;18017;50.124;8.688;2022-12-07T05:17:19;4.40;99.90
31387;DHT22;18017;50.124;8.688;2022-12-07T05:19:44;4.40;99.90
31387;DHT22;18017;50.124;8.688;2022-12-07T05:22:10;4.40;99.90
31387;DHT22;18017;50.124;8.688;2022-12-07T05:24:36;4.40;99.90
31387;DHT22;18017;50.124;8.688;2022-12-07T05:27:01;4.50;99.90
31387;DHT22;18017;50.124;8.688;2022-12-07T05:29:27;4.50;99.90
31387;DHT22;18017;50.124;8.688;2022-12-07T05:31:52;4.50;99.90
31387;DHT22;18017;50.124;8.688;2022-12-07T05:34:18;4.50;99.90
31387;DHT22;18017;50.124;8.688;2022-12-07T05:36:44;4.60;99.90
31387;DHT22;18017;50.124;8.688;2022-12-07T05:39:10;4.60;99.90
31387;DHT22;18017;50.124;8.688;2022-12-07T05:41:35;4.60;99.90
31387;DHT22;18017;50.124;8.688;2022-12-07T05:44:19;4.60;99.90
31387;DHT22;18017;50.124;8.688;2022-12-07T05:46:45;4.70;99.90
31387;DHT22;18017;50.124;8.688;2022-12-07T05:49:10;4.70;99.90
31387;DHT22;18017;50.124;8.688;2022-12-07T05:51:36;4.70;99.90
31387;DHT22;18017;50.124;8.688;2022-12-07T05:54:02;4.80;99.90
31387;DHT22;18017;50.124;8.688;2022-12-07T05:56:27;4.80;99.90
31387;DHT22;18017;50.124;8.688;2022-12-07T05:58:53;4.80;99.90
31387;DHT22;18017;50.124;8.688;2022-12-07T06:01:38;4.80;99.90
31387;DHT22;18017;50.124;8.688;2022-12-07T06:04:03;4.70;99.90
31387;DHT22;18017;50.124;8.688;2022-12-07T06:06:29;4.70;99.90
31387;DHT22;18017;50.124;8.688;2022-12-07T06:08:54;4.70;99.90
31387;DHT22;18017;50.124;8.688;2022-12-07T06:11:20;4.70;99.90
31387;DHT22;18017;50.124;8.688;2022-12-07T06:14:04;4.70;99.90
31387;DHT22;18017;50.124;8.688;2022-12-07T06:16:30;4.70;99.90
31387;DHT22;18017;50.124;8.688;2022-12-07T06:18:55;4.70;99.90
31387;DHT22;18017;50.124;8.688;2022-12-07T06:21:21;4.70;99.90
31387;DHT22;18017;50.124;8.688;2022-12-07T06:23:46;4.70;99.90
31387;DHT22;18017;50.124;8.688;2022-12-07T06:26:13;4.70;99.90
31387;DHT22;18017;50.124;8.688;2022-12-07T06:28:39;4.70;99.90
31387;DHT22;18017;50.124;8.688;2022-12-07T06:31:05;4.70;99.90
31387;DHT22;18017;50.124;8.688;2022-12-07T06:33:31;4.70;99.90
31387;DHT22;18017;50.124;8.688;2022-12-07T06:35:57;4.60;99.90
31387;DHT22;18017;50.124;8.688;2022-12-07T06:38:22;4.60;99.90
31387;DHT22;18017;50.124;8.688;2022-12-07T06:40:48;4.70;99.90
31387;DHT22;18017;50.124;8.688;2022-12-07T06:43:13;4.70;99.90
31387;DHT22;18017;50.124;8.688;2022-12-07T06:45:40;4.60;99.90
31387;DHT22;18017;50.124;8.688;2022-12-07T06:48:06;4.60;99.90
31387;DHT22;18017;50.124;8.688;2022-12-07T06:50:32;4.70;99.90
31387;DHT22;18017;50.124;8.688;2022-12-07T06:52:57;4.70;99.90
31387;DHT22;18017;50.124;8.688;2022-12-07T06:55:23;4.70;99.90
31387;DHT22;18017;50.124;8.688;2022-12-07T06:57:48;4.70;99.90
31387;DHT22;18017;50.124;8.688;2022-12-07T07:00:14;4.70;99.90
31387;DHT22;18017;50.124;8.688;2022-12-07T07:02:40;4.70;99.90
31387;DHT22;18017;50.124;8.688;2022-12-07T07:05:05;4.70;99.90
31387;DHT22;18017;50.124;8.688;2022-12-07T07:07:31;4.70;99.90
31387;DHT22;18017;50.124;8.688;2022-12-07T07:09:57;4.70;99.90
31387;DHT22;18017;50.124;8.688;2022-12-07T07:12:22;4.70;99.90
31387;DHT22;18017;50.124;8.688;2022-12-07T07:14:48;4.70;99.90
31387;DHT22;18017;50.124;8.688;2022-12-07T07:17:13;4.70;99.90
31387;DHT22;18017;50.124;8.688;2022-12-07T07:19:39;4.60;99.90
31387;DHT22;18017;50.124;8.688;2022-12-07T07:22:05;4.60;99.90
31387;DHT22;18017;50.124;8.688;2022-12-07T07:24:30;4.60;99.90
31387;DHT22;18017;50.124;8.688;2022-12-07T07:26:56;4.70;99.90
31387;DHT22;18017;50.124;8.688;2022-12-07T07:29:21;4.80;99.90
31387;DHT22;18017;50.124;8.688;2022-12-07T07:31:47;4.80;99.90
31387;DHT22;18017;50.124;8.688;2022-12-07T07:34:12;4.80;99.90
31387;DHT22;18017;50.124;8.688;2022-12-07T07:36:38;4.70;99.90
31387;DHT22;18017;50.124;8.688;2022-12-07T07:39:04;4.60;99.90
31387;DHT22;18017;50.124;8.688;2022-12-07T07:41:30;4.60;99.90
31387;DHT22;18017;50.124;8.688;2022-12-07T07:43:55;4.60;99.90
31387;DHT22;18017;50.124;8.688;2022-12-07T07:46:21;4.60;99.90
31387;DHT22;18017;50.124;8.688;2022-12-07T07:48:47;4.60;99.90
31387;DHT22;18017;50.124;8.688;2022-12-07T07:51:12;4.70;99.90
31387;DHT22;18017;50.124;8.688;2022-12-07T07:53:38;4.70;99.90
31387;DHT22;18017;50.124;8.688;2022-12-07T07:56:03;4.80;99.90
31387;DHT22;18017;50.124;8.688;2022-12-07T07:58:29;4.80;99.90
31387;DHT22;18017;50.124;8.688;2022-12-07T08:00:54;4.90;99.90
31387;DHT22;18017;50.124;8.688;2022-12-07T08:03:20;4.90;99.90
31387;DHT22;18017;50.124;8.688;2022-12-07T08:05:46;5.10;99.90
31387;DHT22;18017;50.124;8.688;2022-12-07T08:08:11;5.20;99.90
31387;DHT22;18017;50.124;8.688;2022-12-07T08:10:38;5.30;99.90
31387;DHT22;18017;50.124;8.688;2022-12-07T08:13:03;5.40;99.90
31387;DHT22;18017;50.124;8.688;2022-12-07T08:15:43;5.50;99.90
31387;DHT22;18017;50.124;8.688;2022-12-07T08:18:09;5.50;99.90
31387;DHT22;18017;50.124;8.688;2022-12-07T08:20:36;5.70;99.90
31387;DHT22;18017;50.124;8.688;2022-12-07T08:23:03;5.80;99.90
31387;DHT22;18017;50.124;8.688;2022-12-07T08:25:28;5.80;99.90
31387;DHT22;18017;50.124;8.688;2022-12-07T08:27:54;5.70;99.90
31387;DHT22;18017;50.124;8.688;2022-12-07T08:30:20;5.60;99.90
31387;DHT22;18017;50.124;8.688;2022-12-07T08:32:47;5.60;99.90
31387;DHT22;18017;50.124;8.688;2022-12-07T08:35:13;5.60;99.90
31387;DHT22;18017;50.124;8.688;2022-12-07T08:37:39;5.60;99.90
31387;DHT22;18017;50.124;8.688;2022-12-07T08:40:06;5.80;99.90
31387;DHT22;18017;50.124;8.688;2022-12-07T08:42:32;5.80;99.90
31387;DHT22;18017;50.124;8.688;2022-12-07T08:45:09;5.90;99.90
31387;DHT22;18017;50.124;8.688;2022-12-07T08:47:49;6.00;99.90
31387;DHT22;18017;50.124;8.688;2022-12-07T08:50:16;5.90;99.90
31387;DHT22;18017;50.124;8.688;2022-12-07T08:52:43;5.90;99.90
31387;DHT22;18017;50.124;8.688;2022-12-07T08:55:10;6.00;99.90
31387;DHT22;18017;50.124;8.688;2022-12-07T08:57:36;6.10;99.90
31387;DHT22;18017;50.124;8.688;2022-12-07T09:00:04;6.30;99.90
31387;DHT22;18017;50.124;8.688;2022-12-07T09:02:31;6.50;99.90
31387;DHT22;18017;50.124;8.688;2022-12-07T09:04:57;6.60;99.90
31387;DHT22;18017;50.124;8.688;2022-12-07T09:07:23;6.50;99.90
31387;DHT22;18017;50.124;8.688;2022-12-07T09:09:49;6.40;99.90
31387;DHT22;18017;50.124;8.688;2022-12-07T09:12:14;6.30;99.90
31387;DHT22;18017;50.124;8.688;2022-12-07T09:14:40;6.10;99.90
31387;DHT22;18017;50.124;8.688;2022-12-07T09:17:12;6.00;99.90
31387;DHT22;18017;50.124;8.688;2022-12-07T09:19:38;5.90;99.90
31387;DHT22;18017;50.124;8.688;2022-12-07T09:22:04;5.90;99.90
31387;DHT22;18017;50.124;8.688;2022-12-07T09:24:31;5.90;99.90
31387;DHT22;18017;50.124;8.688;2022-12-07T09:26:57;5.90;99.90
31387;DHT22;18017;50.124;8.688;2022-12-07T09:29:23;5.90;99.90
31387;DHT22;18017;50.124;8.688;2022-12-07T09:31:49;5.90;99.90
31387;DHT22;18017;50.124;8.688;2022-12-07T09:34:14;6.00;99.90
31387;DHT22;18017;50.124;8.688;2022-12-07T09:36:40;6.10;99.90
31387;DHT22;18017;50.124;8.688;2022-12-07T09:39:06;6.20;99.90
31387;DHT22;18017;50.124;8.688;2022-12-07T09:41:32;6.30;99.90
31387;DHT22;18017;50.124;8.688;2022-12-07T09:44:23;6.30;99.90
31387;DHT22;18017;50.124;8.688;2022-12-07T09:46:49;6.40;99.90
31387;DHT22;18017;50.124;8.688;2022-12-07T09:49:21;6.80;99.90
31387;DHT22;18017;50.124;8.688;2022-12-07T09:52:02;7.30;99.90
31387;DHT22;18017;50.124;8.688;2022-12-07T09:54:29;7.70;99.90
31387;DHT22;18017;50.124;8.688;2022-12-07T09:56:56;8.10;99.90
31387;DHT22;18017;50.124;8.688;2022-12-07T09:59:21;8.50;99.90
31387;DHT22;18017;50.124;8.688;2022-12-07T10:01:49;8.70;99.90
31387;DHT22;18017;50.124;8.688;2022-12-07T10:04:17;8.40;99.90
31387;DHT22;18017;50.124;8.688;2022-12-07T10:06:44;8.00;99.90
31387;DHT22;18017;50.124;8.688;2022-12-07T10:09:12;7.80;99.90
31387;DHT22;18017;50.124;8.688;2022-12-07T10:12:01;7.80;99.90
31387;DHT22;18017;50.124;8.688;2022-12-07T10:14:30;8.10;99.90
31387;DHT22;18017;50.124;8.688;2022-12-07T10:16:55;8.60;99.90
31387;DHT22;18017;50.124;8.688;2022-12-07T10:19:32;8.60;99.90
31387;DHT22;18017;50.124;8.688;2022-12-07T10:24:29;8.00;99.90
31387;DHT22;18017;50.124;8.688;2022-12-07T10:26:56;8.20;99.90
31387;DHT22;18017;50.124;8.688;2022-12-07T10:29:30;8.20;99.90
31387;DHT22;18017;50.124;8.688;2022-12-07T10:34:49;8.20;99.90
31387;DHT22;18017;50.124;8.688;2022-12-07T10:37:18;8.40;99.90
31387;DHT22;18017;50.124;8.688;2022-12-07T10:42:22;8.20;99.90
31387;DHT22;18017;50.124;8.688;2022-12-07T10:44:49;8.30;99.90
31387;DHT22;18017;50.124;8.688;2022-12-07T10:47:38;8.60;99.90
31387;DHT22;18017;50.124;8.688;2022-12-07T10:55:54;10.50;99.90
31387;DHT22;18017;50.124;8.688;2022-12-07T10:58:45;10.50;99.90
31387;DHT22;18017;50.124;8.688;2022-12-07T11:01:23;10.20;99.90
31387;DHT22;18017;50.124;8.688;2022-12-07T11:04:07;12.70;99.90
31387;DHT22;18017;50.124;8.688;2022-12-07T11:06:44;15.20;99.90
31387;DHT22;18017;50.124;8.688;2022-12-07T11:09:38;17.60;99.90
31387;DHT22;18017;50.124;8.688;2022-12-07T11:14:52;19.30;99.90
31387;DHT22;18017;50.124;8.688;2022-12-07T11:17:47;17.30;99.90
31387;DHT22;18017;50.124;8.688;2022-12-07T11:31:44;10.00;99.90
31387;DHT22;18017;50.124;8.688;2022-12-07T11:37:15;8.90;99.90
31387;DHT22;18017;50.124;8.688;2022-12-07T11:39:51;8.70;99.90
31387;DHT22;18017;50.124;8.688;2022-12-07T11:42:24;8.70;99.90
31387;DHT22;18017;50.124;8.688;2022-12-07T11:45:04;8.80;99.90
31387;DHT22;18017;50.124;8.688;2022-12-07T11:47:48;8.80;99.90
31387;DHT22;18017;50.124;8.688;2022-12-07T11:50:33;8.80;99.90
31387;DHT22;18017;50.124;8.688;2022-12-07T11:53:10;8.80;99.90
31387;DHT22;18017;50.124;8.688;2022-12-07T11:56:02;8.90;99.90
31387;DHT22;18017;50.124;8.688;2022-12-07T12:06:29;9.80;99.90
31387;DHT22;18017;50.124;8.688;2022-12-07T12:14:50;10.00;99.90
31387;DHT22;18017;50.124;8.688;2022-12-07T12:20:26;9.60;99.90
31387;DHT22;18017;50.124;8.688;2022-12-07T12:23:00;9.30;99.90
31387;DHT22;18017;50.124;8.688;2022-12-07T12:25:30;9.20;99.90
31387;DHT22;18017;50.124;8.688;2022-12-07T12:28:00;9.30;99.90
31387;DHT22;18017;50.124;8.688;2022-12-07T12:30:36;9.20;99.90
31387;DHT22;18017;50.124;8.688;2022-12-07T12:33:06;9.10;99.90
31387;DHT22;18017;50.124;8.688;2022-12-07T12:35:33;9.00;99.90
31387;DHT22;18017;50.124;8.688;2022-12-07T12:38:31;9.20;99.90
31387;DHT22;18017;50.124;8.688;2022-12-07T12:40:59;9.70;99.90
31387;DHT22;18017;50.124;8.688;2022-12-07T12:43:51;11.00;99.90
31387;DHT22;18017;50.124;8.688;2022-12-07T12:51:56;11.30;99.90
31387;DHT22;18017;50.124;8.688;2022-12-07T12:54:35;10.20;99.90
31387;DHT22;18017;50.124;8.688;2022-12-07T12:57:24;9.40;99.90
31387;DHT22;18017;50.124;8.688;2022-12-07T13:02:27;8.70;99.90
31387;DHT22;18017;50.124;8.688;2022-12-07T13:05:00;8.70;99.90
31387;DHT22;18017;50.124;8.688;2022-12-07T13:17:59;10.40;99.90
31387;DHT22;18017;50.124;8.688;2022-12-07T13:20:47;10.30;99.90
31387;DHT22;18017;50.124;8.688;2022-12-07T13:23:16;10.10;99.90
31387;DHT22;18017;50.124;8.688;2022-12-07T13:26:03;10.20;99.90
31387;DHT22;18017;50.124;8.688;2022-12-07T13:28:38;10.40;99.90
31387;DHT22;18017;50.124;8.688;2022-12-07T13:31:30;10.50;99.90
31387;DHT22;18017;50.124;8.688;2022-12-07T13:33:57;10.40;99.90
31387;DHT22;18017;50.124;8.688;2022-12-07T13:36:31;10.00;99.90
31387;DHT22;18017;50.124;8.688;2022-12-07T13:41:42;8.90;99.90
31387;DHT22;18017;50.124;8.688;2022-12-07T13:44:13;8.50;99.90
31387;DHT22;18017;50.124;8.688;2022-12-07T13:49:50;8.10;99.90
31387;DHT22;18017;50.124;8.688;2022-12-07T13:52:25;8.10;99.90
31387;DHT22;18017;50.124;8.688;2022-12-07T13:57:33;8.10;99.90
31387;DHT22;18017;50.124;8.688;2022-12-07T14:00:05;8.00;99.90
31387;DHT22;18017;50.124;8.688;2022-12-07T14:02:34;8.00;99.90
31387;DHT22;18017;50.124;8.688;2022-12-07T14:05:24;7.90;99.90
31387;DHT22;18017;50.124;8.688;2022-12-07T14:08:04;7.90;99.90
31387;DHT22;18017;50.124;8.688;2022-12-07T14:10:41;7.80;99.90
31387;DHT22;18017;50.124;8.688;2022-12-07T14:15:53;7.80;99.90
31387;DHT22;18017;50.124;8.688;2022-12-07T14:18:41;7.70;99.90
31387;DHT22;18017;50.124;8.688;2022-12-07T14:21:16;7.60;99.90
31387;DHT22;18017;50.124;8.688;2022-12-07T14:23:43;7.50;99.90
31387;DHT22;18017;50.124;8.688;2022-12-07T14:26:19;7.40;99.90
31387;DHT22;18017;50.124;8.688;2022-12-07T14:28:46;7.30;99.90
31387;DHT22;18017;50.124;8.688;2022-12-07T14:31:17;7.20;99.90
31387;DHT22;18017;50.124;8.688;2022-12-07T14:33:44;7.20;99.90
31387;DHT22;18017;50.124;8.688;2022-12-07T14:36:11;7.20;99.90
31387;DHT22;18017;50.124;8.688;2022-12-07T14:38:37;7.30;99.90
31387;DHT22;18017;50.124;8.688;2022-12-07T14:41:04;7.20;99.90
31387;DHT22;18017;50.124;8.688;2022-12-07T14:43:51;7.20;99.90
31387;DHT22;18017;50.124;8.688;2022-12-07T14:46:16;7.20;99.90
31387;DHT22;18017;50.124;8.688;2022-12-07T14:48:42;7.10;99.90
31387;DHT22;18017;50.124;8.688;2022-12-07T14:51:10;7.10;99.90
31387;DHT22;18017;50.124;8.688;2022-12-07T14:53:40;7.00;99.90
31387;DHT22;18017;50.124;8.688;2022-12-07T14:56:07;6.90;99.90
31387;DHT22;18017;50.124;8.688;2022-12-07T14:58:33;6.90;99.90
31387;DHT22;18017;50.124;8.688;2022-12-07T15:00:59;6.80;99.90
31387;DHT22;18017;50.124;8.688;2022-12-07T15:03:25;6.60;99.90
31387;DHT22;18017;50.124;8.688;2022-12-07T15:05:50;6.50;99.90
31387;DHT22;18017;50.124;8.688;2022-12-07T15:08:16;6.30;99.90
31387;DHT22;18017;50.124;8.688;2022-12-07T15:10:44;6.10;99.90
31387;DHT22;18017;50.124;8.688;2022-12-07T15:13:10;6.00;99.90
31387;DHT22;18017;50.124;8.688;2022-12-07T15:15:55;5.80;99.90
31387;DHT22;18017;50.124;8.688;2022-12-07T15:18:21;5.70;99.90
31387;DHT22;18017;50.124;8.688;2022-12-07T15:20:48;5.70;99.90
31387;DHT22;18017;50.124;8.688;2022-12-07T15:23:14;5.60;99.90
31387;DHT22;18017;50.124;8.688;2022-12-07T15:25:44;5.60;99.90
31387;DHT22;18017;50.124;8.688;2022-12-07T15:28:10;5.70;99.90
31387;DHT22;18017;50.124;8.688;2022-12-07T15:30:40;5.80;99.90
31387;DHT22;18017;50.124;8.688;2022-12-07T15:33:06;5.90;99.90
31387;DHT22;18017;50.124;8.688;2022-12-07T15:35:31;6.00;99.90
31387;DHT22;18017;50.124;8.688;2022-12-07T15:37:57;6.10;99.90
31387;DHT22;18017;50.124;8.688;2022-12-07T15:40:22;6.10;99.90
31387;DHT22;18017;50.124;8.688;2022-12-07T15:42:48;6.10;99.90
31387;DHT22;18017;50.124;8.688;2022-12-07T15:45:14;6.10;99.90
31387;DHT22;18017;50.124;8.688;2022-12-07T15:47:41;6.10;99.90
31387;DHT22;18017;50.124;8.688;2022-12-07T15:50:10;6.10;99.90
31387;DHT22;18017;50.124;8.688;2022-12-07T15:52:36;6.10;99.90
31387;DHT22;18017;50.124;8.688;2022-12-07T15:55:02;6.10;99.90
31387;DHT22;18017;50.124;8.688;2022-12-07T15:57:29;6.00;99.90
31387;DHT22;18017;50.124;8.688;2022-12-07T15:59:55;5.90;99.90
31387;DHT22;18017;50.124;8.688;2022-12-07T16:02:20;5.90;99.90
31387;DHT22;18017;50.124;8.688;2022-12-07T16:04:47;5.80;99.90
31387;DHT22;18017;50.124;8.688;2022-12-07T16:07:13;5.80;99.90
31387;DHT22;18017;50.124;8.688;2022-12-07T16:09:41;5.80;99.90
31387;DHT22;18017;50.124;8.688;2022-12-07T16:12:07;5.80;99.90
31387;DHT22;18017;50.124;8.688;2022-12-07T16:14:33;5.90;99.90
31387;DHT22;18017;50.124;8.688;2022-12-07T16:16:58;5.90;99.90
31387;DHT22;18017;50.124;8.688;2022-12-07T16:19:24;5.90;99.90
31387;DHT22;18017;50.124;8.688;2022-12-07T16:21:50;5.90;99.90
31387;DHT22;18017;50.124;8.688;2022-12-07T16:24:16;5.90;99.90
31387;DHT22;18017;50.124;8.688;2022-12-07T16:26:42;5.90;99.90
31387;DHT22;18017;50.124;8.688;2022-12-07T16:29:11;6.00;99.90
31387;DHT22;18017;50.124;8.688;2022-12-07T16:31:37;6.00;99.90
31387;DHT22;18017;50.124;8.688;2022-12-07T16:34:03;6.00;99.90
31387;DHT22;18017;50.124;8.688;2022-12-07T16:36:28;6.00;99.90
31387;DHT22;18017;50.124;8.688;2022-12-07T16:38:54;6.00;99.90
31387;DHT22;18017;50.124;8.688;2022-12-07T16:41:20;6.00;99.90
31387;DHT22;18017;50.124;8.688;2022-12-07T16:43:46;6.00;99.90
31387;DHT22;18017;50.124;8.688;2022-12-07T16:46:11;6.00;99.90
31387;DHT22;18017;50.124;8.688;2022-12-07T16:48:38;6.00;99.90
31387;DHT22;18017;50.124;8.688;2022-12-07T16:51:06;6.00;99.90
31387;DHT22;18017;50.124;8.688;2022-12-07T16:53:34;5.90;99.90
31387;DHT22;18017;50.124;8.688;2022-12-07T16:56:00;5.90;99.90
31387;DHT22;18017;50.124;8.688;2022-12-07T16:58:25;6.00;99.90
31387;DHT22;18017;50.124;8.688;2022-12-07T17:00:51;6.00;99.90
31387;DHT22;18017;50.124;8.688;2022-12-07T17:03:16;6.00;99.90
31387;DHT22;18017;50.124;8.688;2022-12-07T17:05:44;5.90;99.90
31387;DHT22;18017;50.124;8.688;2022-12-07T17:08:10;5.90;99.90
31387;DHT22;18017;50.124;8.688;2022-12-07T17:10:42;5.80;99.90
31387;DHT22;18017;50.124;8.688;2022-12-07T17:13:09;5.80;99.90
31387;DHT22;18017;50.124;8.688;2022-12-07T17:16:01;5.80;99.90
31387;DHT22;18017;50.124;8.688;2022-12-07T17:18:33;5.70;99.90
31387;DHT22;18017;50.124;8.688;2022-12-07T17:21:06;5.70;99.90
31387;DHT22;18017;50.124;8.688;2022-12-07T17:23:33;5.60;99.90
31387;DHT22;18017;50.124;8.688;2022-12-07T17:26:08;5.60;99.90
31387;DHT22;18017;50.124;8.688;2022-12-07T17:28:34;5.60;99.90
31387;DHT22;18017;50.124;8.688;2022-12-07T17:31:00;5.60;99.90
31387;DHT22;18017;50.124;8.688;2022-12-07T17:33:25;5.60;99.90
31387;DHT22;18017;50.124;8.688;2022-12-07T17:35:51;5.60;99.90
31387;DHT22;18017;50.124;8.688;2022-12-07T17:38:16;5.60;99.90
31387;DHT22;18017;50.124;8.688;2022-12-07T17:40:42;5.60;99.90
31387;DHT22;18017;50.124;8.688;2022-12-07T17:43:10;5.50;99.90